createdAt,value
2023-03-20T00:09:07.427Z,3.22
2023-03-20T00:14:13.801Z,8.30
2023-03-20T00:19:20.844Z,3.88
2023-03-20T00:24:25.292Z,4.63
2023-03-20T00:29:31.286Z,5.75
2023-03-20T00:34:35.965Z,3.53
2023-03-20T00:39:39.227Z,6.83
2023-03-20T00:44:49.691Z,5.25
2023-03-20T00:49:55.978Z,3.25
2023-03-20T00:54:59.286Z,5.47
2023-03-20T01:00:05.418Z,5.03
2023-03-20T01:05:10.453Z,5.80
2023-03-20T01:10:14.869Z,3.53
2023-03-20T01:15:23.715Z,7.50
2023-03-20T01:20:30.670Z,6.15
2023-03-20T01:25:34.244Z,4.88
2023-03-20T01:30:37.615Z,7.40
2023-03-20T01:35:42.361Z,8.07
2023-03-20T01:40:54.327Z,4.80
2023-03-20T01:46:02.951Z,8.95
2023-03-20T01:51:10.495Z,5.63
2023-03-20T01:56:15.565Z,5.23
2023-03-20T02:01:27.683Z,4.78
2023-03-20T02:06:33.471Z,4.70
2023-03-20T02:11:52.402Z,5.15
2023-03-20T02:16:57.163Z,5.55
2023-03-20T02:22:47.519Z,5.78
2023-03-20T02:28:24.839Z,6.78
2023-03-20T02:34:00.640Z,4.72
2023-03-20T02:39:29.161Z,5.47
2023-03-20T02:44:39.282Z,5.55
2023-03-20T02:49:58.047Z,5.93
2023-03-20T02:55:15.967Z,4.43
2023-03-20T03:00:28.470Z,5.82
2023-03-20T03:05:37.765Z,6.50
2023-03-20T03:10:46.569Z,6.18
2023-03-20T03:15:52.562Z,5.93
2023-03-20T03:20:59.417Z,6.57
2023-03-20T03:26:08.145Z,5.85
2023-03-20T03:31:17.623Z,4.55
2023-03-20T03:36:28.408Z,7.20
2023-03-20T03:41:37.450Z,9.23
2023-03-20T03:46:46.455Z,8.15
2023-03-20T03:51:54.652Z,6.25
2023-03-20T03:57:01.747Z,5.60
2023-03-20T04:02:08.555Z,7.13
2023-03-20T04:07:12.211Z,8.05
2023-03-20T04:12:34.886Z,7.22
2023-03-20T04:17:38.677Z,4.80
2023-03-20T04:22:42.948Z,6.00
2023-03-20T04:27:50.772Z,7.28
2023-03-20T04:33:17.204Z,9.75
2023-03-20T04:43:48.095Z,10.82
2023-03-20T04:48:51.789Z,14.87
2023-03-20T04:53:56.254Z,12.25
2023-03-20T04:59:01.378Z,8.25
2023-03-20T05:04:06.210Z,8.35
2023-03-20T05:09:10.480Z,14.10
2023-03-20T05:14:15.963Z,9.38
2023-03-20T05:19:28.524Z,11.25
2023-03-20T05:24:57.258Z,7.43
2023-03-20T05:30:14.646Z,8.18
2023-03-20T05:35:36.300Z,7.72
2023-03-20T05:40:49.601Z,11.15
2023-03-20T05:45:56.978Z,9.07
2023-03-20T05:51:32.368Z,15.20
2023-03-20T05:56:52.557Z,9.73
2023-03-20T06:02:08.660Z,6.47
2023-03-20T06:07:14.748Z,6.90
2023-03-20T06:12:21.540Z,5.70
2023-03-20T06:17:26.345Z,7.47
2023-03-20T06:22:36.494Z,8.40
2023-03-20T06:27:40.071Z,8.63
2023-03-20T06:32:45.130Z,9.63
2023-03-20T06:37:50.254Z,7.78
2023-03-20T06:42:58.900Z,9.00
2023-03-20T06:48:13.490Z,17.13
2023-03-20T06:53:17.022Z,10.83
2023-03-20T06:58:36.760Z,12.60
2023-03-20T07:03:42.112Z,12.90
2023-03-20T07:08:46.547Z,13.60
2023-03-20T07:13:50.313Z,17.00
2023-03-20T07:19:15.976Z,18.90
2023-03-20T07:24:22.070Z,20.05
2023-03-20T07:29:25.549Z,22.33
2023-03-20T07:34:30.730Z,22.35
2023-03-20T07:39:35.582Z,22.08
2023-03-20T07:44:58.710Z,25.23
2023-03-20T07:50:04.547Z,27.58
2023-03-20T07:55:09.551Z,30.15
2023-03-20T08:00:15.278Z,32.20
2023-03-20T08:05:20.069Z,35.00
2023-03-20T08:10:23.391Z,34.07
2023-03-20T08:15:26.620Z,39.88
2023-03-20T08:20:31.786Z,39.85
2023-03-20T08:25:35.398Z,42.65
2023-03-20T08:30:39.084Z,39.55
2023-03-20T08:35:44.537Z,39.80
2023-03-20T08:40:48.256Z,39.00
2023-03-20T08:45:51.886Z,38.65
2023-03-20T08:50:56.589Z,48.83
2023-03-20T08:55:59.824Z,38.27
2023-03-20T09:01:06.485Z,43.85
2023-03-20T09:06:12.269Z,47.40
2023-03-20T09:11:15.564Z,43.10
2023-03-20T09:16:19.018Z,45.13
2023-03-20T09:21:23.720Z,43.38
2023-03-20T09:26:27.046Z,51.50
2023-03-20T09:31:30.308Z,50.20
2023-03-20T09:36:35.045Z,51.72
2023-03-20T09:41:53.132Z,48.83
2023-03-20T09:47:19.941Z,45.40
2023-03-20T09:52:29.595Z,55.22
2023-03-20T09:57:40.552Z,50.88
2023-03-20T10:02:51.189Z,46.42
2023-03-20T10:07:56.782Z,49.45
2023-03-20T10:18:18.010Z,49.72
2023-03-20T10:23:28.443Z,51.50
2023-03-20T10:28:39.444Z,50.78
2023-03-20T10:33:55.987Z,51.17
2023-03-20T10:39:06.730Z,53.72
2023-03-20T10:44:15.990Z,52.85
2023-03-20T10:49:22.471Z,51.33
2023-03-20T10:54:29.598Z,54.25
2023-03-20T10:59:39.183Z,48.97
2023-03-20T11:04:42.664Z,45.90
2023-03-20T11:09:47.245Z,60.13
2023-03-20T11:14:50.453Z,51.00
2023-03-20T11:19:53.646Z,52.83
2023-03-20T11:25:02.598Z,52.17
2023-03-20T11:30:08.690Z,58.83
2023-03-20T11:35:19.551Z,61.83
2023-03-20T11:40:30.595Z,59.05
2023-03-20T11:45:38.084Z,60.20
2023-03-20T11:50:47.207Z,58.45
2023-03-20T11:56:04.832Z,53.05
2023-03-20T12:01:13.383Z,49.30
2023-03-20T12:06:19.974Z,52.45
2023-03-20T12:11:39.468Z,51.28
2023-03-20T12:16:46.771Z,50.90
2023-03-20T12:21:56.773Z,57.30
2023-03-20T12:27:14.251Z,52.35
2023-03-20T12:32:22.683Z,58.40
2023-03-20T12:37:26.119Z,49.72
2023-03-20T12:42:43.444Z,51.97
2023-03-20T12:47:58.348Z,55.08
2023-03-20T12:53:19.686Z,42.47
2023-03-20T12:58:30.831Z,44.25
2023-03-20T13:03:49.547Z,42.50
2023-03-20T13:09:19.384Z,47.20
2023-03-20T13:14:30.087Z,29.10
2023-03-20T13:19:39.353Z,32.72
2023-03-20T13:24:46.458Z,33.20
2023-03-20T13:29:56.246Z,31.13
2023-03-20T13:35:14.866Z,38.53
2023-03-20T13:40:23.768Z,30.33
2023-03-20T13:45:36.647Z,24.02
2023-03-20T13:50:47.355Z,26.35
2023-03-20T13:55:57.440Z,23.98
2023-03-20T14:01:09.176Z,31.48
2023-03-20T14:06:46.684Z,26.90
2023-03-20T14:11:50.212Z,25.90
2023-03-20T14:17:04.677Z,24.17
2023-03-20T14:22:10.601Z,24.75
2023-03-20T14:27:29.920Z,24.67
2023-03-20T14:32:59.264Z,20.83
2023-03-20T14:38:16.489Z,28.05
2023-03-20T14:43:31.359Z,24.60
2023-03-20T14:48:43.220Z,24.80
2023-03-20T14:53:55.070Z,19.92
2023-03-20T14:59:03.061Z,25.75
2023-03-20T15:04:10.681Z,21.30
2023-03-20T15:09:15.037Z,20.38
2023-03-20T15:14:24.013Z,22.08
2023-03-20T15:19:29.623Z,20.08
2023-03-20T15:24:33.384Z,19.05
2023-03-20T15:29:37.084Z,17.33
2023-03-20T15:34:44.469Z,25.92
2023-03-20T15:39:50.739Z,23.75
2023-03-20T15:44:56.235Z,21.17
2023-03-20T15:55:09.212Z,23.83
2023-03-20T16:00:18.752Z,22.25
2023-03-20T16:05:27.960Z,21.13
2023-03-20T16:10:35.735Z,19.80
2023-03-20T16:15:40.620Z,16.23
2023-03-20T16:20:50.757Z,14.43
2023-03-20T16:25:59.502Z,14.05
2023-03-20T16:31:10.689Z,16.15
2023-03-20T16:36:20.964Z,17.20
2023-03-20T16:41:31.031Z,19.08
2023-03-20T16:46:34.723Z,15.73
2023-03-20T16:51:40.048Z,14.95
2023-03-20T16:56:43.747Z,13.32
2023-03-20T17:01:49.168Z,14.70
2023-03-20T17:06:56.094Z,14.30
2023-03-20T17:12:04.568Z,14.23
2023-03-20T17:17:13.416Z,17.95
2023-03-20T17:22:20.647Z,16.23
2023-03-20T17:27:24.977Z,21.40
2023-03-20T17:32:30.267Z,18.48
2023-03-20T17:37:35.221Z,15.43
2023-03-20T17:42:39.425Z,21.55
2023-03-20T17:47:44.652Z,19.63
2023-03-20T17:52:49.192Z,28.85
2023-03-20T17:57:52.395Z,19.45
2023-03-20T18:02:55.596Z,20.73
2023-03-20T18:08:00.258Z,20.83
2023-03-20T18:13:03.441Z,21.60
2023-03-20T18:18:07.825Z,25.17
2023-03-20T18:23:12.913Z,19.23
2023-03-20T18:28:22.623Z,17.15
2023-03-20T18:33:28.093Z,24.63
2023-03-20T18:38:33.050Z,19.75
2023-03-20T18:43:36.387Z,19.27
2023-03-20T18:48:39.956Z,22.85
2023-03-20T18:53:44.847Z,22.58
2023-03-20T18:58:49.178Z,32.27
2023-03-20T19:03:53.847Z,34.63
2023-03-20T19:08:58.796Z,33.03
2023-03-20T19:14:01.984Z,32.87
2023-03-20T19:19:07.219Z,35.00
2023-03-20T19:24:12.081Z,36.63
2023-03-20T19:29:15.453Z,33.40
2023-03-20T19:35:04.563Z,34.70
2023-03-20T19:39:45.334Z,32.80
2023-03-20T19:44:48.526Z,41.28
2023-03-20T19:49:51.843Z,34.90
2023-03-20T19:55:03.014Z,34.47
2023-03-20T20:05:33.037Z,34.05
2023-03-20T20:10:41.152Z,33.05
2023-03-20T20:15:45.154Z,31.23
2023-03-20T20:31:19.792Z,32.50
2023-03-20T20:41:48.793Z,34.97
2023-03-20T20:46:52.042Z,30.70
2023-03-20T20:51:55.403Z,35.88
2023-03-20T20:57:00.336Z,38.05
2023-03-20T21:02:10.500Z,37.55
2023-03-20T21:07:14.753Z,35.33
2023-03-20T21:12:34.778Z,38.78
2023-03-20T21:17:50.466Z,35.40
2023-03-20T21:23:02.350Z,35.35
2023-03-20T21:28:07.690Z,40.47
2023-03-20T21:33:11.334Z,35.22
2023-03-20T21:43:39.609Z,42.13
2023-03-20T21:49:24.632Z,41.03
2023-03-20T22:00:31.667Z,38.05
2023-03-20T22:42:57.364Z,51.40
2023-03-20T22:48:08.921Z,35.95
2023-03-20T22:53:12.275Z,40.38
2023-03-20T22:58:17.683Z,34.50
2023-03-20T23:03:39.955Z,45.22
2023-03-20T23:08:50.705Z,34.17
2023-03-20T23:13:57.618Z,35.22
2023-03-20T23:19:02.348Z,38.70
2023-03-20T23:24:06.155Z,28.70
2023-03-20T23:29:09.845Z,33.35
2023-03-20T23:34:17.414Z,28.38
2023-03-20T23:39:21.279Z,27.33
2023-03-20T23:44:24.435Z,24.75
2023-03-20T23:49:28.978Z,30.58
2023-03-20T23:54:32.137Z,29.80
2023-03-20T23:59:37.231Z,25.50
